Erik Bye — LITD — position and weather

sailwx.info

Track history (hours):
 
Tides and Currents Weather Stations Pressure Air Temp Water Temp Dewpoint Dewpoint Depression Visibility Wind Speed Wind Dir Waves Ship Positions

Erik Bye

Last reported at 2016-Sep-28 08:33 UTC. Time now 2016-Sep-28 12:02 UTC.
Position N 63°07' E 007°44'.

Length 20 m; draft 2 m.

Type: SAR. MMSI: 259460000.

Date/timePositionNaut miles runAvg speedWind from/ knotsBaromVisibWave heightAir tempDewpointWater temp
2016-Sep-28 08:33N 63°07' E 007°44'0 0.0
2016-Sep-28 03:33N 63°07' E 007°44'0 0.0
2016-Sep-28 02:33N 63°07' E 007°44'0 0.0
2016-Sep-28 01:33N 63°07' E 007°44'0 0.0
2016-Sep-27 23:33N 63°07' E 007°44'0 0.0
2016-Sep-27 19:33N 63°07' E 007°44'0 0.0
2016-Sep-27 14:33N 63°07' E 007°44'0 0.0
2016-Sep-27 13:33N 63°07' E 007°44'0 0.0
2016-Sep-27 10:33N 63°07' E 007°44'0 0.0
2016-Sep-27 00:33N 63°07' E 007°44'0 0.0
2016-Sep-26 20:33N 63°07' E 007°44'0 0.0
2016-Sep-26 19:33N 63°07' E 007°44'1 0.1
2016-Sep-26 15:34N 63°07' E 007°44'1 0.7
2016-Sep-26 13:34N 63°07' E 007°41'2 0.8
2016-Sep-26 11:33N 63°07' E 007°44'0 0.0
2016-Sep-26 08:33N 63°07' E 007°44'0 0.0
2016-Sep-26 02:33N 63°07' E 007°44'0 0.0
2016-Sep-26 01:27N 63°07' E 007°44'0 0.0
2016-Sep-26 00:33N 63°07' E 007°44'0 0.0
2016-Sep-25 21:33N 63°07' E 007°44'0 0.0
2016-Sep-25 17:27N 63°07' E 007°44'0 0.0
2016-Sep-25 16:33N 63°07' E 007°44'0 0.0
2016-Sep-25 15:33N 63°07' E 007°44'0 0.0
2016-Sep-25 14:33N 63°07' E 007°44'0 0.0
2016-Sep-25 12:33N 63°07' E 007°44'0 0.0
2016-Sep-25 11:33N 63°07' E 007°44'0 0.0
2016-Sep-25 10:33N 63°07' E 007°44'0 0.0
2016-Sep-25 09:33N 63°07' E 007°44'0 0.0
2016-Sep-25 07:33N 63°07' E 007°44'0 0.0
2016-Sep-25 04:33N 63°07' E 007°44'0 0.0
2016-Sep-25 00:33N 63°07' E 007°44'0 0.0
2016-Sep-24 22:33N 63°07' E 007°44'0 0.0
2016-Sep-24 21:33N 63°07' E 007°44'0 0.0
2016-Sep-24 19:33N 63°07' E 007°44'0 0.0
2016-Sep-24 18:33N 63°07' E 007°44'0 0.0
2016-Sep-24 17:33N 63°07' E 007°44'0 0.0
2016-Sep-24 16:33N 63°07' E 007°44'0 0.0
2016-Sep-24 14:34N 63°07' E 007°44'0 0.0
2016-Sep-24 12:33N 63°07' E 007°44'28 3.1
2016-Sep-24 03:28N 62°54' E 006°49'10 3.3
2016-Sep-24 00:32N 62°47' E 006°35'29 4.2
2016-Sep-23 17:33N 63°04' E 007°26'9 8.5
2016-Sep-23 16:33N 63°07' E 007°44'0 0.0
2016-Sep-23 15:33N 63°07' E 007°44'0 0.0
2016-Sep-23 13:33N 63°07' E 007°44'0 0.0
2016-Sep-23 09:30N 63°07' E 007°44'0 0.0
2016-Sep-23 06:30N 63°07' E 007°44'0 0.0
2016-Sep-23 04:33N 63°07' E 007°44'0 0.0
2016-Sep-23 03:24N 63°07' E 007°44'0 0.0
2016-Sep-23 02:33N 63°07' E 007°44'0 0.0
2016-Sep-23 01:33N 63°07' E 007°44'0 0.0
2016-Sep-23 00:33N 63°07' E 007°44'0 0.0
2016-Sep-22 23:27N 63°07' E 007°44'0 0.0
2016-Sep-22 20:33N 63°07' E 007°44'0 0.0
2016-Sep-22 12:24N 63°07' E 007°44'0 0.0
2016-Sep-22 04:33N 63°07' E 007°44'0 0.0
2016-Sep-22 03:33N 63°07' E 007°44'0 0.0
2016-Sep-22 00:33N 63°07' E 007°44'1 1.0
2016-Sep-21 23:33N 63°06' E 007°42'1 1.0
2016-Sep-21 22:32N 63°07' E 007°44'0 0.0
2016-Sep-21 19:32N 63°07' E 007°44'0 0.0
2016-Sep-21 16:32N 63°07' E 007°44'0 0.0
2016-Sep-21 09:33N 63°07' E 007°44'0 0.0
2016-Sep-21 08:32N 63°07' E 007°44'0 0.0
2016-Sep-21 05:33N 63°07' E 007°44'0 0.0
2016-Sep-21 03:29N 63°07' E 007°44'0 0.0
2016-Sep-21 02:29N 63°07' E 007°44'0 0.0
2016-Sep-20 17:33N 63°07' E 007°44'0 0.0
2016-Sep-20 14:29N 63°07' E 007°44'0 0.0
2016-Sep-20 13:33N 63°07' E 007°44'0 0.0
2016-Sep-20 10:30N 63°07' E 007°44'0 0.0
2016-Sep-20 08:33N 63°07' E 007°44'0 0.0
2016-Sep-20 07:33N 63°07' E 007°44'0 0.0
2016-Sep-20 06:33N 63°07' E 007°44'0 0.0
2016-Sep-20 02:33N 63°07' E 007°44'0 0.0
2016-Sep-19 23:30N 63°07' E 007°44'0 0.0
2016-Sep-19 19:33N 63°07' E 007°44'0 0.0
2016-Sep-19 18:33N 63°07' E 007°44'0 0.0
2016-Sep-19 16:33N 63°07' E 007°44'0 0.0
2016-Sep-19 14:33N 63°07' E 007°44'0 0.0
2016-Sep-19 13:33N 63°07' E 007°44'0 0.0
2016-Sep-19 12:33N 63°07' E 007°44'0 0.0
2016-Sep-19 11:33N 63°07' E 007°44'0 0.0
2016-Sep-19 09:33N 63°07' E 007°44'0 0.0
2016-Sep-19 07:33N 63°07' E 007°44'0 0.0
2016-Sep-19 06:33N 63°07' E 007°44'0 0.0
2016-Sep-19 03:33N 63°07' E 007°44'0 0.0
2016-Sep-19 02:33N 63°07' E 007°44'0 0.0
2016-Sep-19 00:33N 63°07' E 007°44'0 0.0
2016-Sep-18 19:33N 63°07' E 007°44'0 0.0
2016-Sep-18 15:33N 63°07' E 007°44'0 0.0
2016-Sep-18 14:33N 63°07' E 007°44'0 0.0
2016-Sep-18 10:30N 63°07' E 007°44'0 0.0
2016-Sep-18 09:33N 63°07' E 007°44'  
Track history (hours):
 
Tides and Currents Weather Stations Pressure Air Temp Water Temp Dewpoint Dewpoint Depression Visibility Wind Speed Wind Dir Waves Ship Positions

Erik Bye

Last reported at 2016-Sep-28 08:33 UTC. Time now 2016-Sep-28 12:02 UTC.
Position N 63°07' E 007°44'.

Length 20 m; draft 2 m.

Type: SAR. MMSI: 259460000.

Date/timePositionNaut miles runAvg speedWind from/ knotsBaromVisibWave heightAir tempDewpointWater temp
2016-Sep-28 08:33N 63°07' E 007°44'0 0.0
2016-Sep-28 03:33N 63°07' E 007°44'0 0.0
2016-Sep-28 02:33N 63°07' E 007°44'0 0.0
2016-Sep-28 01:33N 63°07' E 007°44'0 0.0
2016-Sep-27 23:33N 63°07' E 007°44'0 0.0
2016-Sep-27 19:33N 63°07' E 007°44'0 0.0
2016-Sep-27 14:33N 63°07' E 007°44'0 0.0
2016-Sep-27 13:33N 63°07' E 007°44'0 0.0
2016-Sep-27 10:33N 63°07' E 007°44'0 0.0
2016-Sep-27 00:33N 63°07' E 007°44'0 0.0
2016-Sep-26 20:33N 63°07' E 007°44'0 0.0
2016-Sep-26 19:33N 63°07' E 007°44'1 0.1
2016-Sep-26 15:34N 63°07' E 007°44'1 0.7
2016-Sep-26 13:34N 63°07' E 007°41'2 0.8
2016-Sep-26 11:33N 63°07' E 007°44'0 0.0
2016-Sep-26 08:33N 63°07' E 007°44'0 0.0
2016-Sep-26 02:33N 63°07' E 007°44'0 0.0
2016-Sep-26 01:27N 63°07' E 007°44'0 0.0
2016-Sep-26 00:33N 63°07' E 007°44'0 0.0
2016-Sep-25 21:33N 63°07' E 007°44'0 0.0
2016-Sep-25 17:27N 63°07' E 007°44'0 0.0
2016-Sep-25 16:33N 63°07' E 007°44'0 0.0
2016-Sep-25 15:33N 63°07' E 007°44'0 0.0
2016-Sep-25 14:33N 63°07' E 007°44'0 0.0
2016-Sep-25 12:33N 63°07' E 007°44'0 0.0
2016-Sep-25 11:33N 63°07' E 007°44'0 0.0
2016-Sep-25 10:33N 63°07' E 007°44'0 0.0
2016-Sep-25 09:33N 63°07' E 007°44'0 0.0
2016-Sep-25 07:33N 63°07' E 007°44'0 0.0
2016-Sep-25 04:33N 63°07' E 007°44'0 0.0
2016-Sep-25 00:33N 63°07' E 007°44'0 0.0
2016-Sep-24 22:33N 63°07' E 007°44'0 0.0
2016-Sep-24 21:33N 63°07' E 007°44'0 0.0
2016-Sep-24 19:33N 63°07' E 007°44'0 0.0
2016-Sep-24 18:33N 63°07' E 007°44'0 0.0
2016-Sep-24 17:33N 63°07' E 007°44'0 0.0
2016-Sep-24 16:33N 63°07' E 007°44'0 0.0
2016-Sep-24 14:34N 63°07' E 007°44'0 0.0
2016-Sep-24 12:33N 63°07' E 007°44'28 3.1
2016-Sep-24 03:28N 62°54' E 006°49'10 3.3
2016-Sep-24 00:32N 62°47' E 006°35'29 4.2
2016-Sep-23 17:33N 63°04' E 007°26'9 8.5
2016-Sep-23 16:33N 63°07' E 007°44'0 0.0
2016-Sep-23 15:33N 63°07' E 007°44'0 0.0
2016-Sep-23 13:33N 63°07' E 007°44'0 0.0
2016-Sep-23 09:30N 63°07' E 007°44'0 0.0
2016-Sep-23 06:30N 63°07' E 007°44'0 0.0
2016-Sep-23 04:33N 63°07' E 007°44'0 0.0
2016-Sep-23 03:24N 63°07' E 007°44'0 0.0
2016-Sep-23 02:33N 63°07' E 007°44'0 0.0
2016-Sep-23 01:33N 63°07' E 007°44'0 0.0
2016-Sep-23 00:33N 63°07' E 007°44'0 0.0
2016-Sep-22 23:27N 63°07' E 007°44'0 0.0
2016-Sep-22 20:33N 63°07' E 007°44'0 0.0
2016-Sep-22 12:24N 63°07' E 007°44'0 0.0
2016-Sep-22 04:33N 63°07' E 007°44'0 0.0
2016-Sep-22 03:33N 63°07' E 007°44'0 0.0
2016-Sep-22 00:33N 63°07' E 007°44'1 1.0
2016-Sep-21 23:33N 63°06' E 007°42'1 1.0
2016-Sep-21 22:32N 63°07' E 007°44'0 0.0
2016-Sep-21 19:32N 63°07' E 007°44'0 0.0
2016-Sep-21 16:32N 63°07' E 007°44'0 0.0
2016-Sep-21 09:33N 63°07' E 007°44'0 0.0
2016-Sep-21 08:32N 63°07' E 007°44'0 0.0
2016-Sep-21 05:33N 63°07' E 007°44'0 0.0
2016-Sep-21 03:29N 63°07' E 007°44'0 0.0
2016-Sep-21 02:29N 63°07' E 007°44'0 0.0
2016-Sep-20 17:33N 63°07' E 007°44'0 0.0
2016-Sep-20 14:29N 63°07' E 007°44'0 0.0
2016-Sep-20 13:33N 63°07' E 007°44'0 0.0
2016-Sep-20 10:30N 63°07' E 007°44'0 0.0
2016-Sep-20 08:33N 63°07' E 007°44'0 0.0
2016-Sep-20 07:33N 63°07' E 007°44'0 0.0
2016-Sep-20 06:33N 63°07' E 007°44'0 0.0
2016-Sep-20 02:33N 63°07' E 007°44'0 0.0
2016-Sep-19 23:30N 63°07' E 007°44'0 0.0
2016-Sep-19 19:33N 63°07' E 007°44'0 0.0
2016-Sep-19 18:33N 63°07' E 007°44'0 0.0
2016-Sep-19 16:33N 63°07' E 007°44'0 0.0
2016-Sep-19 14:33N 63°07' E 007°44'0 0.0
2016-Sep-19 13:33N 63°07' E 007°44'0 0.0
2016-Sep-19 12:33N 63°07' E 007°44'0 0.0
2016-Sep-19 11:33N 63°07' E 007°44'0 0.0
2016-Sep-19 09:33N 63°07' E 007°44'0 0.0
2016-Sep-19 07:33N 63°07' E 007°44'0 0.0
2016-Sep-19 06:33N 63°07' E 007°44'0 0.0
2016-Sep-19 03:33N 63°07' E 007°44'0 0.0
2016-Sep-19 02:33N 63°07' E 007°44'0 0.0
2016-Sep-19 00:33N 63°07' E 007°44'0 0.0
2016-Sep-18 19:33N 63°07' E 007°44'0 0.0
2016-Sep-18 15:33N 63°07' E 007°44'0 0.0
2016-Sep-18 14:33N 63°07' E 007°44'0 0.0
2016-Sep-18 10:30N 63°07' E 007°44'0 0.0
2016-Sep-18 09:33N 63°07' E 007°44'  

Dump ship's entire track history